sensor_id;sensor_type;location;lat;lon;timestamp;pressure;altitude;pressure_sealevel;temperature;humidity
18918;BME280;9591;52.742;13.650;2023-03-04T00:00:11;101269.09;;;4.84;100.00
18918;BME280;9591;52.742;13.650;2023-03-04T00:02:58;101272.59;;;4.88;100.00
18918;BME280;9591;52.742;13.650;2023-03-04T00:05:45;101270.84;;;4.76;100.00
18918;BME280;9591;52.742;13.650;2023-03-04T00:08:32;101279.59;;;4.98;100.00
18918;BME280;9591;52.742;13.650;2023-03-04T00:11:19;101266.47;;;4.86;100.00
18918;BME280;9591;52.742;13.650;2023-03-04T00:14:07;101269.97;;;5.06;100.00
18918;BME280;9591;52.742;13.650;2023-03-04T00:16:54;101267.34;;;5.02;100.00
18918;BME280;9591;52.742;13.650;2023-03-04T00:19:41;101266.44;;;5.10;100.00
18918;BME280;9591;52.742;13.650;2023-03-04T00:22:27;101268.22;;;4.96;100.00
18918;BME280;9591;52.742;13.650;2023-03-04T00:25:14;101266.41;;;5.24;100.00
18918;BME280;9591;52.742;13.650;2023-03-04T00:28:01;101258.59;;;5.03;100.00
18918;BME280;9591;52.742;13.650;2023-03-04T00:30:50;101269.03;;;5.21;100.00
18918;BME280;9591;52.742;13.650;2023-03-04T00:33:37;101233.22;;;5.00;100.00
18918;BME280;9591;52.742;13.650;2023-03-04T00:36:24;101271.72;;;4.95;100.00
18918;BME280;9591;52.742;13.650;2023-03-04T00:39:13;101275.19;;;5.14;100.00
18918;BME280;9591;52.742;13.650;2023-03-04T00:41:59;101262.06;;;5.18;100.00
18918;BME280;9591;52.742;13.650;2023-03-04T00:44:46;101266.44;;;5.19;100.00
18918;BME280;9591;52.742;13.650;2023-03-04T00:47:35;101262.06;;;5.14;100.00
18918;BME280;9591;52.742;13.650;2023-03-04T00:50:22;101252.41;;;5.23;100.00
18918;BME280;9591;52.742;13.650;2023-03-04T00:53:09;101259.44;;;5.15;100.00
18918;BME280;9591;52.742;13.650;2023-03-04T00:55:56;101248.88;;;5.26;100.00
18918;BME280;9591;52.742;13.650;2023-03-04T00:58:43;101240.19;;;5.09;100.00
18918;BME280;9591;52.742;13.650;2023-03-04T01:01:29;101229.69;;;5.07;100.00
18918;BME280;9591;52.742;13.650;2023-03-04T01:04:18;101237.59;;;5.04;100.00
18918;BME280;9591;52.742;13.650;2023-03-04T01:07:04;101248.94;;;5.12;100.00
18918;BME280;9591;52.742;13.650;2023-03-04T01:09:51;101248.06;;;5.09;100.00
18918;BME280;9591;52.742;13.650;2023-03-04T01:12:38;101247.19;;;5.07;100.00
18918;BME280;9591;52.742;13.650;2023-03-04T01:15:25;101244.59;;;4.99;100.00
18918;BME280;9591;52.742;13.650;2023-03-04T01:18:12;101245.44;;;5.09;100.00
18918;BME280;9591;52.742;13.650;2023-03-04T01:21:01;101241.97;;;5.01;100.00
18918;BME280;9591;52.742;13.650;2023-03-04T01:23:47;101242.84;;;5.01;100.00
18918;BME280;9591;52.742;13.650;2023-03-04T01:26:34;101236.72;;;5.02;100.00
18918;BME280;9591;52.742;13.650;2023-03-04T01:29:21;101233.19;;;5.08;100.00
18918;BME280;9591;52.742;13.650;2023-03-04T01:32:08;101225.31;;;5.05;100.00
18918;BME280;9591;52.742;13.650;2023-03-04T01:34:54;101234.03;;;5.20;100.00
18918;BME280;9591;52.742;13.650;2023-03-04T01:37:43;101230.56;;;5.14;100.00
18918;BME280;9591;52.742;13.650;2023-03-04T01:40:29;101220.06;;;5.15;100.00
18918;BME280;9591;52.742;13.650;2023-03-04T01:43:20;101217.44;;;5.12;100.00
18918;BME280;9591;52.742;13.650;2023-03-04T01:46:09;101151.00;;;4.84;100.00
18918;BME280;9591;52.742;13.650;2023-03-04T01:48:59;101205.09;;;5.36;100.00
18918;BME280;9591;52.742;13.650;2023-03-04T01:51:48;101210.38;;;5.23;100.00
18918;BME280;9591;52.742;13.650;2023-03-04T01:54:36;101205.09;;;5.37;100.00
18918;BME280;9591;52.742;13.650;2023-03-04T01:57:24;101208.56;;;5.44;100.00
18918;BME280;9591;52.742;13.650;2023-03-04T02:00:32;101202.44;;;5.43;100.00
18918;BME280;9591;52.742;13.650;2023-03-04T02:03:20;101191.06;;;5.37;100.00
18918;BME280;9591;52.742;13.650;2023-03-04T02:06:07;101195.41;;;5.47;100.00
18918;BME280;9591;52.742;13.650;2023-03-04T02:08:54;101185.75;;;5.50;100.00
18918;BME280;9591;52.742;13.650;2023-03-04T02:11:43;101155.13;;;5.51;100.00
18918;BME280;9591;52.742;13.650;2023-03-04T02:14:30;101184.00;;;5.51;100.00
18918;BME280;9591;52.742;13.650;2023-03-04T02:17:16;101180.50;;;5.49;100.00
18918;BME280;9591;52.742;13.650;2023-03-04T02:20:16;101169.09;;;5.54;100.00
18918;BME280;9591;52.742;13.650;2023-03-04T02:23:12;101163.84;;;5.54;100.00
18918;BME280;9591;52.742;13.650;2023-03-04T02:26:12;101164.66;;;5.69;100.00
18918;BME280;9591;52.742;13.650;2023-03-04T02:29:01;101156.81;;;5.61;100.00
18918;BME280;9591;52.742;13.650;2023-03-04T02:31:50;101155.88;;;5.71;100.00
18918;BME280;9591;52.742;13.650;2023-03-04T02:34:41;101140.13;;;5.68;100.00
18918;BME280;9591;52.742;13.650;2023-03-04T02:37:30;101157.56;;;5.84;100.00
18918;BME280;9591;52.742;13.650;2023-03-04T02:40:22;101154.06;;;5.85;100.00
18918;BME280;9591;52.742;13.650;2023-03-04T02:43:11;101154.03;;;5.88;100.00
18918;BME280;9591;52.742;13.650;2023-03-04T02:45:58;101064.94;;;5.46;100.00
18918;BME280;9591;52.742;13.650;2023-03-04T02:48:45;101151.44;;;5.81;100.00
18918;BME280;9591;52.742;13.650;2023-03-04T02:51:31;101137.41;;;5.86;100.00
18918;BME280;9591;52.742;13.650;2023-03-04T02:54:21;101126.09;;;5.72;100.00
18918;BME280;9591;52.742;13.650;2023-03-04T02:57:09;101131.34;;;5.75;100.00
18918;BME280;9591;52.742;13.650;2023-03-04T03:00:00;101123.47;;;5.71;100.00
18918;BME280;9591;52.742;13.650;2023-03-04T03:02:47;101119.97;;;5.70;100.00
18918;BME280;9591;52.742;13.650;2023-03-04T03:05:36;101115.53;;;5.78;100.00
18918;BME280;9591;52.742;13.650;2023-03-04T03:08:23;101106.72;;;5.85;100.00
18918;BME280;9591;52.742;13.650;2023-03-04T03:11:11;101103.22;;;5.89;100.00
18918;BME280;9591;52.742;13.650;2023-03-04T03:13:58;101102.34;;;5.84;100.00
18918;BME280;9591;52.742;13.650;2023-03-04T03:16:46;101104.09;;;5.88;100.00
18918;BME280;9591;52.742;13.650;2023-03-04T03:19:33;101104.94;;;5.97;100.00
18918;BME280;9591;52.742;13.650;2023-03-04T03:22:23;101093.56;;;5.88;100.00
18918;BME280;9591;52.742;13.650;2023-03-04T03:25:12;101041.22;;;5.58;100.00
18918;BME280;9591;52.742;13.650;2023-03-04T03:27:59;101098.81;;;5.93;100.00
18918;BME280;9591;52.742;13.650;2023-03-04T03:30:46;101098.78;;;5.98;100.00
18918;BME280;9591;52.742;13.650;2023-03-04T03:33:34;101093.38;;;6.13;100.00
18918;BME280;9591;52.742;13.650;2023-03-04T03:36:21;101097.88;;;6.02;100.00
18918;BME280;9591;52.742;13.650;2023-03-04T03:39:08;101090.94;;;5.93;100.00
18918;BME280;9591;52.742;13.650;2023-03-04T03:41:55;101090.88;;;6.01;100.00
18918;BME280;9591;52.742;13.650;2023-03-04T03:44:42;101092.53;;;6.11;100.00
18918;BME280;9591;52.742;13.650;2023-03-04T03:47:29;101094.22;;;6.16;100.00
18918;BME280;9591;52.742;13.650;2023-03-04T03:50:17;101005.28;;;5.60;100.00
18918;BME280;9591;52.742;13.650;2023-03-04T03:53:03;101090.69;;;6.22;100.00
18918;BME280;9591;52.742;13.650;2023-03-04T03:55:50;101081.13;;;6.10;100.00
18918;BME280;9591;52.742;13.650;2023-03-04T03:58:37;101087.13;;;6.28;100.00
18918;BME280;9591;52.742;13.650;2023-03-04T04:01:24;101081.91;;;6.21;100.00
18918;BME280;9591;52.742;13.650;2023-03-04T04:04:10;101084.47;;;6.31;100.00
18918;BME280;9591;52.742;13.650;2023-03-04T04:06:59;101070.44;;;6.30;100.00
18918;BME280;9591;52.742;13.650;2023-03-04T04:09:45;101077.44;;;6.30;100.00
18918;BME280;9591;52.742;13.650;2023-03-04T04:12:33;101058.13;;;6.32;100.00
18918;BME280;9591;52.742;13.650;2023-03-04T04:15:20;101065.06;;;6.41;100.00
18918;BME280;9591;52.742;13.650;2023-03-04T04:18:07;101066.78;;;6.46;100.00
18918;BME280;9591;52.742;13.650;2023-03-04T04:20:54;101058.94;;;6.42;100.00
18918;BME280;9591;52.742;13.650;2023-03-04T04:23:42;101058.09;;;6.38;100.00
18918;BME280;9591;52.742;13.650;2023-03-04T04:26:29;101060.56;;;6.53;100.00
18918;BME280;9591;52.742;13.650;2023-03-04T04:29:16;101057.22;;;6.36;100.00
18918;BME280;9591;52.742;13.650;2023-03-04T04:32:02;101055.31;;;6.50;100.00
18918;BME280;9591;52.742;13.650;2023-03-04T04:34:49;101058.81;;;6.52;100.00
18918;BME280;9591;52.742;13.650;2023-03-04T04:37:36;101061.44;;;6.54;100.00
18918;BME280;9591;52.742;13.650;2023-03-04T04:40:24;101057.16;;;6.44;100.00
18918;BME280;9591;52.742;13.650;2023-03-04T04:43:11;101052.59;;;6.61;100.00
18918;BME280;9591;52.742;13.650;2023-03-04T04:45:59;101019.59;;;6.30;100.00
18918;BME280;9591;52.742;13.650;2023-03-04T04:48:46;101030.84;;;6.44;100.00
18918;BME280;9591;52.742;13.650;2023-03-04T04:51:33;101050.78;;;6.66;100.00
18918;BME280;9591;52.742;13.650;2023-03-04T04:54:21;101050.06;;;6.52;100.00
18918;BME280;9591;52.742;13.650;2023-03-04T04:57:10;101052.63;;;6.58;100.00
18918;BME280;9591;52.742;13.650;2023-03-04T04:59:57;101049.31;;;6.39;100.00
18918;BME280;9591;52.742;13.650;2023-03-04T05:02:44;101046.38;;;6.67;100.00
18918;BME280;9591;52.742;13.650;2023-03-04T05:05:30;101042.09;;;6.56;100.00
18918;BME280;9591;52.742;13.650;2023-03-04T05:08:17;101046.44;;;6.61;100.00
18918;BME280;9591;52.742;13.650;2023-03-04T05:11:05;101019.56;;;6.33;100.00
18918;BME280;9591;52.742;13.650;2023-03-04T05:13:53;101044.81;;;6.49;100.00
18918;BME280;9591;52.742;13.650;2023-03-04T05:16:40;101037.91;;;6.37;100.00
18918;BME280;9591;52.742;13.650;2023-03-04T05:19:27;101042.13;;;6.53;100.00
18918;BME280;9591;52.742;13.650;2023-03-04T05:22:15;101044.09;;;6.33;100.00
18918;BME280;9591;52.742;13.650;2023-03-04T05:25:02;101036.00;;;6.54;100.00
18918;BME280;9591;52.742;13.650;2023-03-04T05:27:51;101036.16;;;6.39;100.00
18918;BME280;9591;52.742;13.650;2023-03-04T05:30:41;101036.75;;;6.64;100.00
18918;BME280;9591;52.742;13.650;2023-03-04T05:33:30;101030.75;;;6.51;100.00
18918;BME280;9591;52.742;13.650;2023-03-04T05:36:17;101036.94;;;6.49;100.00
18918;BME280;9591;52.742;13.650;2023-03-04T05:39:04;101039.47;;;6.56;100.00
18918;BME280;9591;52.742;13.650;2023-03-04T05:41:50;101038.50;;;6.67;100.00
18918;BME280;9591;52.742;13.650;2023-03-04T05:44:37;101041.19;;;6.61;100.00
18918;BME280;9591;52.742;13.650;2023-03-04T05:47:25;101036.06;;;6.48;100.00
18918;BME280;9591;52.742;13.650;2023-03-04T05:50:13;101035.88;;;6.64;100.00
18918;BME280;9591;52.742;13.650;2023-03-04T05:53:00;101028.06;;;6.57;100.00
18918;BME280;9591;52.742;13.650;2023-03-04T05:55:47;101025.34;;;6.65;100.00
18918;BME280;9591;52.742;13.650;2023-03-04T05:58:33;101037.75;;;6.52;100.00
18918;BME280;9591;52.742;13.650;2023-03-04T06:01:20;101028.97;;;6.55;100.00
18918;BME280;9591;52.742;13.650;2023-03-04T06:04:08;101034.94;;;6.69;100.00
18918;BME280;9591;52.742;13.650;2023-03-04T06:06:55;101039.41;;;6.64;100.00
18918;BME280;9591;52.742;13.650;2023-03-04T06:09:42;101035.81;;;6.70;100.00
18918;BME280;9591;52.742;13.650;2023-03-04T06:12:29;101023.69;;;6.55;100.00
18918;BME280;9591;52.742;13.650;2023-03-04T06:15:16;101036.56;;;6.82;100.00
18918;BME280;9591;52.742;13.650;2023-03-04T06:18:03;101030.53;;;6.73;100.00
18918;BME280;9591;52.742;13.650;2023-03-04T06:20:55;101037.47;;;6.80;100.00
18918;BME280;9591;52.742;13.650;2023-03-04T06:23:41;101042.72;;;6.80;100.00
18918;BME280;9591;52.742;13.650;2023-03-04T06:26:29;101037.47;;;6.80;100.00
18918;BME280;9591;52.742;13.650;2023-03-04T06:29:16;101040.09;;;6.78;100.00
18918;BME280;9591;52.742;13.650;2023-03-04T06:32:03;101040.19;;;6.72;100.00
18918;BME280;9591;52.742;13.650;2023-03-04T06:34:50;101037.56;;;6.71;100.00
18918;BME280;9591;52.742;13.650;2023-03-04T06:37:38;101041.75;;;6.88;100.00
18918;BME280;9591;52.742;13.650;2023-03-04T06:40:25;101033.88;;;6.87;100.00
18918;BME280;9591;52.742;13.650;2023-03-04T06:43:11;101039.13;;;6.87;100.00
18918;BME280;9591;52.742;13.650;2023-03-04T06:45:58;101034.78;;;6.83;100.00
18918;BME280;9591;52.742;13.650;2023-03-04T06:48:45;101044.31;;;6.93;100.00
18918;BME280;9591;52.742;13.650;2023-03-04T06:51:32;101050.59;;;6.81;100.00
18918;BME280;9591;52.742;13.650;2023-03-04T06:54:20;101038.09;;;6.97;100.00
18918;BME280;9591;52.742;13.650;2023-03-04T06:57:07;101049.47;;;6.99;100.00
18918;BME280;9591;52.742;13.650;2023-03-04T06:59:54;101053.00;;;6.98;100.00
18918;BME280;9591;52.742;13.650;2023-03-04T07:02:41;101058.63;;;6.71;100.00
18918;BME280;9591;52.742;13.650;2023-03-04T07:05:28;101058.50;;;6.81;100.00
18918;BME280;9591;52.742;13.650;2023-03-04T07:08:14;101059.53;;;6.68;100.00
18918;BME280;9591;52.742;13.650;2023-03-04T07:11:03;101058.72;;;6.62;100.00
18918;BME280;9591;52.742;13.650;2023-03-04T07:13:50;101062.97;;;6.73;100.00
18918;BME280;9591;52.742;13.650;2023-03-04T07:16:37;101060.44;;;6.66;100.00
18918;BME280;9591;52.742;13.650;2023-03-04T07:19:24;101064.69;;;6.79;100.00
18918;BME280;9591;52.742;13.650;2023-03-04T07:22:11;101068.97;;;6.86;100.00
18918;BME280;9591;52.742;13.650;2023-03-04T07:24:57;101062.66;;;6.99;100.00
18918;BME280;9591;52.742;13.650;2023-03-04T07:27:45;101066.91;;;7.09;100.00
18918;BME280;9591;52.742;13.650;2023-03-04T07:30:32;101072.16;;;7.11;100.00
18918;BME280;9591;52.742;13.650;2023-03-04T07:33:19;101061.66;;;7.09;100.00
18918;BME280;9591;52.742;13.650;2023-03-04T07:36:06;101060.69;;;7.15;100.00
18918;BME280;9591;52.742;13.650;2023-03-04T07:38:53;101060.75;;;7.10;100.00
18918;BME280;9591;52.742;13.650;2023-03-04T07:41:40;101064.16;;;7.18;100.00
18918;BME280;9591;52.742;13.650;2023-03-04T07:44:28;101063.38;;;7.10;100.00
18918;BME280;9591;52.742;13.650;2023-03-04T07:47:15;101059.78;;;7.17;100.00
18918;BME280;9591;52.742;13.650;2023-03-04T07:50:02;101065.88;;;7.22;100.00
18918;BME280;9591;52.742;13.650;2023-03-04T07:52:49;101065.72;;;7.33;100.00
18918;BME280;9591;52.742;13.650;2023-03-04T07:55:36;101066.59;;;7.34;100.00
18918;BME280;9591;52.742;13.650;2023-03-04T07:58:23;101061.97;;;7.51;100.00
18918;BME280;9591;52.742;13.650;2023-03-04T08:01:13;101055.84;;;7.49;100.00
18918;BME280;9591;52.742;13.650;2023-03-04T08:04:00;101062.72;;;7.59;100.00
18918;BME280;9591;52.742;13.650;2023-03-04T08:06:47;101052.28;;;7.51;100.00
18918;BME280;9591;52.742;13.650;2023-03-04T08:09:34;101050.53;;;7.52;100.00
18918;BME280;9591;52.742;13.650;2023-03-04T08:12:21;101049.63;;;7.54;100.00
18918;BME280;9591;52.742;13.650;2023-03-04T08:15:09;101052.91;;;7.69;100.00
18918;BME280;9591;52.742;13.650;2023-03-04T08:17:58;101056.34;;;7.74;100.00
18918;BME280;9591;52.742;13.650;2023-03-04T08:20:44;101050.50;;;7.53;100.00
18918;BME280;9591;52.742;13.650;2023-03-04T08:23:31;101045.03;;;7.67;100.00
18918;BME280;9591;52.742;13.650;2023-03-04T08:26:20;101051.91;;;7.77;100.00
18918;BME280;9591;52.742;13.650;2023-03-04T08:29:09;101048.38;;;7.78;100.00
18918;BME280;9591;52.742;13.650;2023-03-04T08:31:56;101045.03;;;7.67;100.00
18918;BME280;9591;52.742;13.650;2023-03-04T08:34:45;101047.41;;;7.81;100.00
18918;BME280;9591;52.742;13.650;2023-03-04T08:37:31;101046.63;;;7.77;100.00
18918;BME280;9591;52.742;13.650;2023-03-04T08:40:18;101043.97;;;7.79;100.00
18918;BME280;9591;52.742;13.650;2023-03-04T08:43:05;101049.13;;;7.83;100.00
18918;BME280;9591;52.742;13.650;2023-03-04T08:45:53;101009.75;;;7.76;100.00
18918;BME280;9591;52.742;13.650;2023-03-04T08:48:39;101051.63;;;7.93;100.00
18918;BME280;9591;52.742;13.650;2023-03-04T08:51:28;101039.41;;;7.87;100.00
18918;BME280;9591;52.742;13.650;2023-03-04T08:54:14;101041.75;;;8.05;100.00
18918;BME280;9591;52.742;13.650;2023-03-04T08:57:01;101029.81;;;7.83;100.00
18918;BME280;9591;52.742;13.650;2023-03-04T08:59:48;101036.06;;;7.79;100.00
18918;BME280;9591;52.742;13.650;2023-03-04T09:02:35;101033.25;;;7.88;100.00
18918;BME280;9591;52.742;13.650;2023-03-04T09:05:22;101029.19;;;7.69;100.00
18918;BME280;9591;52.742;13.650;2023-03-04T09:08:11;101028.25;;;7.73;100.00
18918;BME280;9591;52.742;13.650;2023-03-04T09:10:57;101030.81;;;7.77;100.00
18918;BME280;9591;52.742;13.650;2023-03-04T09:13:44;101045.50;;;7.90;100.00
18918;BME280;9591;52.742;13.650;2023-03-04T09:16:31;101043.50;;;8.05;100.00
18918;BME280;9591;52.742;13.650;2023-03-04T09:19:18;101043.63;;;7.99;100.00
18918;BME280;9591;52.742;13.650;2023-03-04T09:22:04;101042.63;;;8.06;100.00
18918;BME280;9591;52.742;13.650;2023-03-04T09:24:53;101033.72;;;8.13;100.00
18918;BME280;9591;52.742;13.650;2023-03-04T09:27:40;101049.53;;;8.13;100.00
18918;BME280;9591;52.742;13.650;2023-03-04T09:30:27;101058.28;;;8.16;93.65
18918;BME280;9591;52.742;13.650;2023-03-04T09:33:14;101038.81;;;8.22;94.74
18918;BME280;9591;52.742;13.650;2023-03-04T09:36:01;101043.94;;;8.31;93.64
18918;BME280;9591;52.742;13.650;2023-03-04T09:38:48;101056.59;;;8.11;90.14
18918;BME280;9591;52.742;13.650;2023-03-04T09:41:42;101055.50;;;8.24;90.24
18918;BME280;9591;52.742;13.650;2023-03-04T09:44:33;101057.44;;;8.64;86.44
18918;BME280;9591;52.742;13.650;2023-03-04T09:47:25;101052.16;;;8.64;88.33
18918;BME280;9591;52.742;13.650;2023-03-04T09:50:12;101061.09;;;8.57;84.98
18918;BME280;9591;52.742;13.650;2023-03-04T09:53:05;101065.69;;;8.47;83.14
18918;BME280;9591;52.742;13.650;2023-03-04T09:55:54;101060.47;;;8.44;81.96
18918;BME280;9591;52.742;13.650;2023-03-04T09:58:48;101061.38;;;8.41;82.63
18918;BME280;9591;52.742;13.650;2023-03-04T10:01:41;101062.03;;;8.54;80.40
18918;BME280;9591;52.742;13.650;2023-03-04T10:04:33;101054.38;;;8.40;80.78
18918;BME280;9591;52.742;13.650;2023-03-04T10:07:27;101030.19;;;8.63;82.63
18918;BME280;9591;52.742;13.650;2023-03-04T10:10:20;101073.16;;;8.70;82.03
18918;BME280;9591;52.742;13.650;2023-03-04T10:13:13;101063.66;;;8.61;79.60
18918;BME280;9591;52.742;13.650;2023-03-04T10:16:04;101068.25;;;8.51;79.87
18918;BME280;9591;52.742;13.650;2023-03-04T10:18:55;101063.78;;;8.55;79.55
18918;BME280;9591;52.742;13.650;2023-03-04T10:21:44;101073.75;;;8.38;78.07
18918;BME280;9591;52.742;13.650;2023-03-04T10:24:31;101076.25;;;8.47;77.83
18918;BME280;9591;52.742;13.650;2023-03-04T10:27:19;101073.25;;;8.65;78.57
18918;BME280;9591;52.742;13.650;2023-03-04T10:30:17;101017.47;;;8.37;76.92
18918;BME280;9591;52.742;13.650;2023-03-04T10:33:12;101069.75;;;8.65;79.53
18918;BME280;9591;52.742;13.650;2023-03-04T10:36:26;101056.72;;;8.99;78.06
18918;BME280;9591;52.742;13.650;2023-03-04T10:39:29;101076.41;;;8.84;77.15
18918;BME280;9591;52.742;13.650;2023-03-04T10:42:27;101059.66;;;8.85;76.50
18918;BME280;9591;52.742;13.650;2023-03-04T10:45:25;101076.88;;;8.60;76.01
18918;BME280;9591;52.742;13.650;2023-03-04T10:48:30;101062.53;;;8.73;75.29
18918;BME280;9591;52.742;13.650;2023-03-04T10:51:27;101066.63;;;8.87;77.03
18918;BME280;9591;52.742;13.650;2023-03-04T10:54:23;101073.97;;;8.73;77.85
18918;BME280;9591;52.742;13.650;2023-03-04T10:57:14;101081.34;;;8.56;76.23
18918;BME280;9591;52.742;13.650;2023-03-04T11:00:22;101079.66;;;8.52;75.55
18918;BME280;9591;52.742;13.650;2023-03-04T11:03:32;101080.94;;;8.77;75.47
18918;BME280;9591;52.742;13.650;2023-03-04T11:06:21;101085.34;;;8.77;75.08
18918;BME280;9591;52.742;13.650;2023-03-04T11:09:20;101084.72;;;8.64;72.22
18918;BME280;9591;52.742;13.650;2023-03-04T11:12:09;101087.63;;;8.50;72.49
18918;BME280;9591;52.742;13.650;2023-03-04T11:14:57;101076.66;;;8.70;72.31
18918;BME280;9591;52.742;13.650;2023-03-04T11:17:47;101082.34;;;8.50;73.11
18918;BME280;9591;52.742;13.650;2023-03-04T11:20:41;101082.81;;;8.71;72.19
18918;BME280;9591;52.742;13.650;2023-03-04T11:23:34;101086.22;;;8.77;71.15
18918;BME280;9591;52.742;13.650;2023-03-04T11:26:28;101078.84;;;8.93;72.07
18918;BME280;9591;52.742;13.650;2023-03-04T11:29:21;101091.28;;;8.88;72.02
18918;BME280;9591;52.742;13.650;2023-03-04T11:32:13;101081.50;;;8.93;71.02
18918;BME280;9591;52.742;13.650;2023-03-04T11:35:05;101082.97;;;9.08;71.16
18918;BME280;9591;52.742;13.650;2023-03-04T11:37:59;101084.78;;;9.04;68.33
18918;BME280;9591;52.742;13.650;2023-03-04T11:40:52;101087.63;;;9.37;68.68
18918;BME280;9591;52.742;13.650;2023-03-04T11:43:41;101090.06;;;9.47;69.33
18918;BME280;9591;52.742;13.650;2023-03-04T11:47:06;101090.31;;;8.92;69.19
18918;BME280;9591;52.742;13.650;2023-03-04T11:53:19;101082.28;;;9.40;68.41
18918;BME280;9591;52.742;13.650;2023-03-04T11:56:21;101082.56;;;9.28;68.88
18918;BME280;9591;52.742;13.650;2023-03-04T11:59:35;101080.81;;;9.27;67.71
18918;BME280;9591;52.742;13.650;2023-03-04T12:02:32;101074.34;;;9.40;69.07
18918;BME280;9591;52.742;13.650;2023-03-04T12:05:33;101067.75;;;9.58;70.03
18918;BME280;9591;52.742;13.650;2023-03-04T12:12:05;101066.22;;;9.49;65.55
18918;BME280;9591;52.742;13.650;2023-03-04T12:15:03;101076.31;;;9.30;67.84
18918;BME280;9591;52.742;13.650;2023-03-04T12:21:18;101072.53;;;9.00;68.61
18918;BME280;9591;52.742;13.650;2023-03-04T12:24:33;101076.41;;;8.84;68.74
18918;BME280;9591;52.742;13.650;2023-03-04T12:27:31;101074.00;;;8.70;69.05
18918;BME280;9591;52.742;13.650;2023-03-04T12:30:32;101076.41;;;8.84;68.32
18918;BME280;9591;52.742;13.650;2023-03-04T12:33:29;101083.69;;;8.71;68.14
18918;BME280;9591;52.742;13.650;2023-03-04T12:36:27;101069.28;;;8.87;67.52
18918;BME280;9591;52.742;13.650;2023-03-04T12:39:26;101084.34;;;8.82;66.80
18918;BME280;9591;52.742;13.650;2023-03-04T12:42:21;101080.00;;;8.80;67.36
18918;BME280;9591;52.742;13.650;2023-03-04T12:45:20;101080.06;;;8.77;68.29
18918;BME280;9591;52.742;13.650;2023-03-04T12:48:20;101073.53;;;8.95;68.37
18918;BME280;9591;52.742;13.650;2023-03-04T12:51:22;101070.84;;;8.98;67.71
18918;BME280;9591;52.742;13.650;2023-03-04T12:54:18;101071.25;;;9.21;65.67
18918;BME280;9591;52.742;13.650;2023-03-04T12:57:11;101063.41;;;9.16;67.89
18918;BME280;9591;52.742;13.650;2023-03-04T13:00:08;101065.22;;;9.14;65.47
18918;BME280;9591;52.742;13.650;2023-03-04T13:03:07;101069.44;;;9.23;64.00
18918;BME280;9591;52.742;13.650;2023-03-04T13:06:04;101070.81;;;8.99;65.26
18918;BME280;9591;52.742;13.650;2023-03-04T13:09:00;101061.09;;;9.00;66.80
18918;BME280;9591;52.742;13.650;2023-03-04T13:11:54;101058.94;;;9.20;66.49
18918;BME280;9591;52.742;13.650;2023-03-04T13:15:16;101062.47;;;9.19;67.98
18918;BME280;9591;52.742;13.650;2023-03-04T13:18:32;101067.72;;;9.20;68.88
18918;BME280;9591;52.742;13.650;2023-03-04T13:21:22;101074.16;;;9.07;69.94
18918;BME280;9591;52.742;13.650;2023-03-04T13:24:43;101070.19;;;8.86;68.33
18918;BME280;9591;52.742;13.650;2023-03-04T13:27:47;101069.13;;;8.95;69.10
18918;BME280;9591;52.742;13.650;2023-03-04T13:30:40;101070.19;;;8.86;67.84
18918;BME280;9591;52.742;13.650;2023-03-04T13:33:53;101075.34;;;8.93;67.71
18918;BME280;9591;52.742;13.650;2023-03-04T13:36:52;101024.31;;;8.47;69.47
18918;BME280;9591;52.742;13.650;2023-03-04T13:39:40;101077.91;;;8.52;70.90
18918;BME280;9591;52.742;13.650;2023-03-04T13:42:39;101073.63;;;8.45;70.80
18918;BME280;9591;52.742;13.650;2023-03-04T13:45:33;101075.41;;;8.45;69.87
18918;BME280;9591;52.742;13.650;2023-03-04T13:48:30;101066.56;;;8.47;70.11
18918;BME280;9591;52.742;13.650;2023-03-04T13:51:23;101075.25;;;8.52;69.37
18918;BME280;9591;52.742;13.650;2023-03-04T13:54:16;101062.72;;;8.64;68.74
18918;BME280;9591;52.742;13.650;2023-03-04T13:57:17;101066.31;;;8.60;70.44
18918;BME280;9591;52.742;13.650;2023-03-04T14:00:10;101078.50;;;8.67;68.79
18918;BME280;9591;52.742;13.650;2023-03-04T14:03:11;101061.97;;;8.57;70.44
18918;BME280;9591;52.742;13.650;2023-03-04T14:06:16;101070.72;;;8.61;69.49
18918;BME280;9591;52.742;13.650;2023-03-04T14:09:11;101065.75;;;8.42;69.89
18918;BME280;9591;52.742;13.650;2023-03-04T14:12:00;101071.94;;;8.41;70.16
18918;BME280;9591;52.742;13.650;2023-03-04T14:14:50;101063.91;;;8.47;69.51
18918;BME280;9591;52.742;13.650;2023-03-04T14:17:38;101067.44;;;8.46;70.18
18918;BME280;9591;52.742;13.650;2023-03-04T14:20:27;101051.09;;;8.25;71.32
18918;BME280;9591;52.742;13.650;2023-03-04T14:23:23;101058.09;;;8.27;71.96
18918;BME280;9591;52.742;13.650;2023-03-04T14:26:14;101063.47;;;8.21;71.72
18918;BME280;9591;52.742;13.650;2023-03-04T14:29:01;101058.91;;;8.31;71.14
18918;BME280;9591;52.742;13.650;2023-03-04T14:31:48;101060.72;;;8.27;71.93
18918;BME280;9591;52.742;13.650;2023-03-04T14:34:37;101051.16;;;8.21;70.66
18918;BME280;9591;52.742;13.650;2023-03-04T14:37:26;101047.28;;;8.42;71.19
18918;BME280;9591;52.742;13.650;2023-03-04T14:40:19;101054.66;;;8.22;71.78
18918;BME280;9591;52.742;13.650;2023-03-04T14:43:13;101048.91;;;8.49;69.38
18918;BME280;9591;52.742;13.650;2023-03-04T14:46:01;101053.06;;;8.63;68.52
18918;BME280;9591;52.742;13.650;2023-03-04T14:48:50;101055.47;;;8.73;68.71
18918;BME280;9591;52.742;13.650;2023-03-04T14:51:44;101051.25;;;8.66;68.31
18918;BME280;9591;52.742;13.650;2023-03-04T14:54:34;101055.78;;;8.58;68.27
18918;BME280;9591;52.742;13.650;2023-03-04T14:57:23;101050.78;;;8.43;67.57
18918;BME280;9591;52.742;13.650;2023-03-04T15:00:29;101055.41;;;8.29;68.25
18918;BME280;9591;52.742;13.650;2023-03-04T15:03:19;101053.50;;;8.40;68.07